Aviation Digital Data Service (ADDS)

Output produced by TAFs form (1555 UTC 23 April 2017)
found at http://www.aviationweather.gov/adds/tafs/
 
KGFL 231148Z 2312/2412 29003KT P6SM SKC 
     FM231600 17007KT P6SM SKC 
     FM240000 VRB03KT P6SM SKC